Terminal Aerodrome Forecast
Issued by NWS

Home | Current Version | Previous Version | Text Only | Print | Product List | Glossary On
Versions: 1 2 3 4 5 6 7 8 9 10 11 12 13 14 15 16 17 18 19
000
FTUS45 KABQ 311100 RRA
TAFAEG
TAF
KAEG 311151Z 3112/0112 07008KT P6SM FEW040 SCT100
     FM311900 12008KT P6SM SCT060 SCT100
     FM312200 21010G18KT P6SM VCSH SCT050 BKN100
     FM010000 22010G20KT P6SM VCTS SCT050CB BKN100
     FM010500 11007KT P6SM BKN060 OVC100=

USA.gov is the U.S. government's official web portal to all federal, state and local government web resources and services.